sensor_id;sensor_type;location;lat;lon;timestamp;P1;durP1;ratioP1;P2;durP2;ratioP2
47155;SDS011;32908;52.344;16.858;2023-02-28T00:01:20;41.43;;;19.50;;
47155;SDS011;32908;52.344;16.858;2023-02-28T00:03:51;44.97;;;20.57;;
47155;SDS011;32908;52.344;16.858;2023-02-28T00:06:22;47.67;;;19.60;;
47155;SDS011;32908;52.344;16.858;2023-02-28T00:08:53;43.30;;;20.30;;
47155;SDS011;32908;52.344;16.858;2023-02-28T00:11:24;47.43;;;20.97;;
47155;SDS011;32908;52.344;16.858;2023-02-28T00:13:55;42.27;;;20.13;;
47155;SDS011;32908;52.344;16.858;2023-02-28T00:16:26;43.00;;;19.87;;
47155;SDS011;32908;52.344;16.858;2023-02-28T00:18:57;44.80;;;20.40;;
47155;SDS011;32908;52.344;16.858;2023-02-28T00:21:27;47.40;;;22.33;;
47155;SDS011;32908;52.344;16.858;2023-02-28T00:23:58;48.30;;;20.83;;
47155;SDS011;32908;52.344;16.858;2023-02-28T00:26:29;45.40;;;20.30;;
47155;SDS011;32908;52.344;16.858;2023-02-28T00:29:00;44.30;;;20.37;;
47155;SDS011;32908;52.344;16.858;2023-02-28T00:31:31;45.73;;;21.43;;
47155;SDS011;32908;52.344;16.858;2023-02-28T00:34:02;39.70;;;19.63;;
47155;SDS011;32908;52.344;16.858;2023-02-28T00:36:33;43.57;;;19.97;;
47155;SDS011;32908;52.344;16.858;2023-02-28T00:39:04;44.73;;;19.80;;
47155;SDS011;32908;52.344;16.858;2023-02-28T00:41:35;43.03;;;19.83;;
47155;SDS011;32908;52.344;16.858;2023-02-28T00:44:06;41.10;;;18.97;;
47155;SDS011;32908;52.344;16.858;2023-02-28T00:46:37;40.70;;;20.00;;
47155;SDS011;32908;52.344;16.858;2023-02-28T00:49:08;41.63;;;20.40;;
47155;SDS011;32908;52.344;16.858;2023-02-28T00:51:39;39.97;;;19.30;;
47155;SDS011;32908;52.344;16.858;2023-02-28T00:54:09;38.60;;;18.93;;
47155;SDS011;32908;52.344;16.858;2023-02-28T00:56:40;40.37;;;20.13;;
47155;SDS011;32908;52.344;16.858;2023-02-28T00:59:12;35.83;;;18.20;;
47155;SDS011;32908;52.344;16.858;2023-02-28T01:01:43;38.60;;;18.50;;
47155;SDS011;32908;52.344;16.858;2023-02-28T01:04:14;42.10;;;18.37;;
47155;SDS011;32908;52.344;16.858;2023-02-28T01:06:45;38.27;;;18.67;;
47155;SDS011;32908;52.344;16.858;2023-02-28T01:09:16;42.13;;;19.13;;
47155;SDS011;32908;52.344;16.858;2023-02-28T01:11:47;39.17;;;18.43;;
47155;SDS011;32908;52.344;16.858;2023-02-28T01:14:18;36.73;;;17.50;;
47155;SDS011;32908;52.344;16.858;2023-02-28T01:16:49;37.67;;;19.97;;
47155;SDS011;32908;52.344;16.858;2023-02-28T01:19:20;36.53;;;18.60;;
47155;SDS011;32908;52.344;16.858;2023-02-28T01:21:51;34.73;;;18.07;;
47155;SDS011;32908;52.344;16.858;2023-02-28T01:24:22;36.37;;;18.27;;
47155;SDS011;32908;52.344;16.858;2023-02-28T01:26:53;38.53;;;18.83;;
47155;SDS011;32908;52.344;16.858;2023-02-28T01:29:23;37.90;;;18.70;;
47155;SDS011;32908;52.344;16.858;2023-02-28T01:31:54;37.00;;;19.70;;
47155;SDS011;32908;52.344;16.858;2023-02-28T01:34:27;37.53;;;19.17;;
47155;SDS011;32908;52.344;16.858;2023-02-28T01:36:58;36.83;;;18.90;;
47155;SDS011;32908;52.344;16.858;2023-02-28T01:39:29;39.73;;;19.30;;
47155;SDS011;32908;52.344;16.858;2023-02-28T01:41:59;37.57;;;19.30;;
47155;SDS011;32908;52.344;16.858;2023-02-28T01:47:30;34.67;;;18.60;;
47155;SDS011;32908;52.344;16.858;2023-02-28T01:50:04;38.30;;;20.20;;
47155;SDS011;32908;52.344;16.858;2023-02-28T01:52:37;39.10;;;20.53;;
47155;SDS011;32908;52.344;16.858;2023-02-28T01:55:08;41.33;;;19.90;;
47155;SDS011;32908;52.344;16.858;2023-02-28T01:57:42;38.97;;;19.20;;
47155;SDS011;32908;52.344;16.858;2023-02-28T02:00:15;41.60;;;20.87;;
47155;SDS011;32908;52.344;16.858;2023-02-28T02:02:49;41.93;;;21.40;;
47155;SDS011;32908;52.344;16.858;2023-02-28T02:05:22;37.63;;;19.57;;
47155;SDS011;32908;52.344;16.858;2023-02-28T02:07:55;38.13;;;19.67;;
47155;SDS011;32908;52.344;16.858;2023-02-28T02:10:31;43.00;;;21.00;;
47155;SDS011;32908;52.344;16.858;2023-02-28T02:13:18;41.57;;;20.30;;
47155;SDS011;32908;52.344;16.858;2023-02-28T02:15:56;39.30;;;19.63;;
47155;SDS011;32908;52.344;16.858;2023-02-28T02:18:37;38.50;;;19.83;;
47155;SDS011;32908;52.344;16.858;2023-02-28T02:24:14;42.07;;;20.93;;
47155;SDS011;32908;52.344;16.858;2023-02-28T02:27:05;36.10;;;19.63;;
47155;SDS011;32908;52.344;16.858;2023-02-28T02:29:44;43.63;;;21.57;;
47155;SDS011;32908;52.344;16.858;2023-02-28T02:32:43;40.00;;;20.63;;
47155;SDS011;32908;52.344;16.858;2023-02-28T02:35:32;37.10;;;18.57;;
47155;SDS011;32908;52.344;16.858;2023-02-28T02:38:08;46.73;;;20.87;;
47155;SDS011;32908;52.344;16.858;2023-02-28T02:40:43;46.37;;;21.87;;
47155;SDS011;32908;52.344;16.858;2023-02-28T02:43:18;31.77;;;16.20;;
47155;SDS011;32908;52.344;16.858;2023-02-28T02:45:52;46.93;;;21.40;;
47155;SDS011;32908;52.344;16.858;2023-02-28T02:48:27;44.83;;;20.87;;
47155;SDS011;32908;52.344;16.858;2023-02-28T02:51:00;40.50;;;20.17;;
47155;SDS011;32908;52.344;16.858;2023-02-28T02:53:34;45.60;;;21.07;;
47155;SDS011;32908;52.344;16.858;2023-02-28T02:56:07;47.87;;;22.17;;
47155;SDS011;32908;52.344;16.858;2023-02-28T02:58:39;45.33;;;22.37;;
47155;SDS011;32908;52.344;16.858;2023-02-28T03:01:12;46.53;;;22.63;;
47155;SDS011;32908;52.344;16.858;2023-02-28T03:03:56;48.43;;;22.90;;
47155;SDS011;32908;52.344;16.858;2023-02-28T03:06:28;44.87;;;22.53;;
47155;SDS011;32908;52.344;16.858;2023-02-28T03:08:59;49.70;;;22.60;;
47155;SDS011;32908;52.344;16.858;2023-02-28T03:11:30;47.87;;;22.70;;
47155;SDS011;32908;52.344;16.858;2023-02-28T03:14:08;49.73;;;22.70;;
47155;SDS011;32908;52.344;16.858;2023-02-28T03:16:49;52.70;;;22.63;;
47155;SDS011;32908;52.344;16.858;2023-02-28T03:19:41;46.33;;;22.13;;
47155;SDS011;32908;52.344;16.858;2023-02-28T03:22:21;47.30;;;22.03;;
47155;SDS011;32908;52.344;16.858;2023-02-28T03:25:03;46.87;;;22.67;;
47155;SDS011;32908;52.344;16.858;2023-02-28T03:27:37;45.87;;;22.10;;
47155;SDS011;32908;52.344;16.858;2023-02-28T03:30:11;46.83;;;21.73;;
47155;SDS011;32908;52.344;16.858;2023-02-28T03:32:49;47.33;;;22.23;;
47155;SDS011;32908;52.344;16.858;2023-02-28T03:35:24;50.37;;;22.57;;
47155;SDS011;32908;52.344;16.858;2023-02-28T03:37:58;42.60;;;21.63;;
47155;SDS011;32908;52.344;16.858;2023-02-28T03:40:32;45.30;;;22.70;;
47155;SDS011;32908;52.344;16.858;2023-02-28T03:43:06;49.73;;;23.43;;
47155;SDS011;32908;52.344;16.858;2023-02-28T03:45:41;44.03;;;21.40;;
47155;SDS011;32908;52.344;16.858;2023-02-28T03:48:14;52.47;;;22.73;;
47155;SDS011;32908;52.344;16.858;2023-02-28T03:50:48;50.53;;;23.13;;
47155;SDS011;32908;52.344;16.858;2023-02-28T03:53:21;51.17;;;21.80;;
47155;SDS011;32908;52.344;16.858;2023-02-28T03:55:55;49.53;;;21.97;;
47155;SDS011;32908;52.344;16.858;2023-02-28T03:58:30;49.67;;;22.40;;
47155;SDS011;32908;52.344;16.858;2023-02-28T04:01:05;49.10;;;23.67;;
47155;SDS011;32908;52.344;16.858;2023-02-28T04:03:38;48.43;;;21.77;;
47155;SDS011;32908;52.344;16.858;2023-02-28T04:06:13;49.17;;;21.37;;
47155;SDS011;32908;52.344;16.858;2023-02-28T04:08:46;43.33;;;21.50;;
47155;SDS011;32908;52.344;16.858;2023-02-28T04:11:19;50.67;;;23.87;;
47155;SDS011;32908;52.344;16.858;2023-02-28T04:13:52;45.10;;;21.60;;
47155;SDS011;32908;52.344;16.858;2023-02-28T04:16:23;48.07;;;22.80;;
47155;SDS011;32908;52.344;16.858;2023-02-28T04:18:55;47.63;;;22.40;;
47155;SDS011;32908;52.344;16.858;2023-02-28T04:21:29;48.43;;;21.97;;
47155;SDS011;32908;52.344;16.858;2023-02-28T04:24:01;46.30;;;22.97;;
47155;SDS011;32908;52.344;16.858;2023-02-28T04:26:34;48.55;;;22.75;;
47155;SDS011;32908;52.344;16.858;2023-02-28T04:29:05;50.73;;;23.63;;
47155;SDS011;32908;52.344;16.858;2023-02-28T04:31:36;52.00;;;23.37;;
47155;SDS011;32908;52.344;16.858;2023-02-28T04:34:08;50.60;;;24.30;;
47155;SDS011;32908;52.344;16.858;2023-02-28T04:36:39;49.90;;;22.03;;
47155;SDS011;32908;52.344;16.858;2023-02-28T04:39:10;48.30;;;21.87;;
47155;SDS011;32908;52.344;16.858;2023-02-28T04:41:41;46.87;;;22.97;;
47155;SDS011;32908;52.344;16.858;2023-02-28T04:44:12;49.77;;;23.43;;
47155;SDS011;32908;52.344;16.858;2023-02-28T04:46:43;51.33;;;23.53;;
47155;SDS011;32908;52.344;16.858;2023-02-28T04:49:14;49.43;;;22.43;;
47155;SDS011;32908;52.344;16.858;2023-02-28T04:51:45;44.93;;;22.23;;
47155;SDS011;32908;52.344;16.858;2023-02-28T04:54:17;45.93;;;21.30;;
47155;SDS011;32908;52.344;16.858;2023-02-28T04:56:48;46.93;;;21.93;;
47155;SDS011;32908;52.344;16.858;2023-02-28T04:59:19;53.43;;;24.13;;
47155;SDS011;32908;52.344;16.858;2023-02-28T05:01:50;46.80;;;23.23;;
47155;SDS011;32908;52.344;16.858;2023-02-28T05:04:21;50.60;;;22.07;;
47155;SDS011;32908;52.344;16.858;2023-02-28T05:06:51;45.13;;;22.73;;
47155;SDS011;32908;52.344;16.858;2023-02-28T05:09:23;46.60;;;22.63;;
47155;SDS011;32908;52.344;16.858;2023-02-28T05:11:54;46.67;;;23.00;;
47155;SDS011;32908;52.344;16.858;2023-02-28T05:14:24;43.77;;;21.57;;
47155;SDS011;32908;52.344;16.858;2023-02-28T05:16:55;41.73;;;20.70;;
47155;SDS011;32908;52.344;16.858;2023-02-28T05:19:26;49.97;;;22.23;;
47155;SDS011;32908;52.344;16.858;2023-02-28T05:21:57;45.50;;;21.23;;
47155;SDS011;32908;52.344;16.858;2023-02-28T05:24:28;46.00;;;21.25;;
47155;SDS011;32908;52.344;16.858;2023-02-28T05:26:59;43.77;;;22.07;;
47155;SDS011;32908;52.344;16.858;2023-02-28T05:29:31;46.37;;;22.07;;
47155;SDS011;32908;52.344;16.858;2023-02-28T05:32:02;47.80;;;21.80;;
47155;SDS011;32908;52.344;16.858;2023-02-28T05:34:33;45.87;;;22.13;;
47155;SDS011;32908;52.344;16.858;2023-02-28T05:37:03;51.20;;;23.37;;
47155;SDS011;32908;52.344;16.858;2023-02-28T05:39:35;43.73;;;22.57;;
47155;SDS011;32908;52.344;16.858;2023-02-28T05:42:06;51.20;;;22.33;;
47155;SDS011;32908;52.344;16.858;2023-02-28T05:44:37;48.90;;;23.67;;
47155;SDS011;32908;52.344;16.858;2023-02-28T05:47:08;47.03;;;21.67;;
47155;SDS011;32908;52.344;16.858;2023-02-28T05:49:40;53.87;;;23.20;;
47155;SDS011;32908;52.344;16.858;2023-02-28T05:52:11;50.17;;;23.37;;
47155;SDS011;32908;52.344;16.858;2023-02-28T05:54:42;51.30;;;22.87;;
47155;SDS011;32908;52.344;16.858;2023-02-28T05:57:13;49.37;;;24.97;;
47155;SDS011;32908;52.344;16.858;2023-02-28T05:59:44;48.27;;;23.37;;
47155;SDS011;32908;52.344;16.858;2023-02-28T06:02:15;50.70;;;24.45;;
47155;SDS011;32908;52.344;16.858;2023-02-28T06:04:46;51.17;;;24.97;;
47155;SDS011;32908;52.344;16.858;2023-02-28T06:07:17;48.23;;;24.27;;
47155;SDS011;32908;52.344;16.858;2023-02-28T06:09:50;52.43;;;24.97;;
47155;SDS011;32908;52.344;16.858;2023-02-28T06:12:21;57.70;;;26.13;;
47155;SDS011;32908;52.344;16.858;2023-02-28T06:14:51;57.00;;;26.03;;
47155;SDS011;32908;52.344;16.858;2023-02-28T06:17:22;59.63;;;26.77;;
47155;SDS011;32908;52.344;16.858;2023-02-28T06:19:53;54.77;;;26.70;;
47155;SDS011;32908;52.344;16.858;2023-02-28T06:22:25;57.23;;;27.27;;
47155;SDS011;32908;52.344;16.858;2023-02-28T06:24:55;53.70;;;26.10;;
47155;SDS011;32908;52.344;16.858;2023-02-28T06:27:26;51.13;;;24.90;;
47155;SDS011;32908;52.344;16.858;2023-02-28T06:29:57;54.03;;;26.97;;
47155;SDS011;32908;52.344;16.858;2023-02-28T06:32:28;61.60;;;25.63;;
47155;SDS011;32908;52.344;16.858;2023-02-28T06:34:59;54.63;;;27.13;;
47155;SDS011;32908;52.344;16.858;2023-02-28T06:37:31;60.80;;;26.37;;
47155;SDS011;32908;52.344;16.858;2023-02-28T06:40:02;56.90;;;26.67;;
47155;SDS011;32908;52.344;16.858;2023-02-28T06:42:35;62.37;;;28.37;;
47155;SDS011;32908;52.344;16.858;2023-02-28T06:45:06;61.53;;;28.80;;
47155;SDS011;32908;52.344;16.858;2023-02-28T06:47:38;61.93;;;27.10;;
47155;SDS011;32908;52.344;16.858;2023-02-28T06:50:11;52.67;;;25.90;;
47155;SDS011;32908;52.344;16.858;2023-02-28T06:52:42;53.13;;;26.53;;
47155;SDS011;32908;52.344;16.858;2023-02-28T06:55:13;50.27;;;24.20;;
47155;SDS011;32908;52.344;16.858;2023-02-28T06:57:44;52.17;;;24.17;;
47155;SDS011;32908;52.344;16.858;2023-02-28T07:00:16;48.73;;;22.87;;
47155;SDS011;32908;52.344;16.858;2023-02-28T07:02:47;39.27;;;21.57;;
47155;SDS011;32908;52.344;16.858;2023-02-28T07:05:18;42.43;;;20.33;;
47155;SDS011;32908;52.344;16.858;2023-02-28T07:07:49;37.10;;;20.43;;
47155;SDS011;32908;52.344;16.858;2023-02-28T07:10:20;40.77;;;21.10;;
47155;SDS011;32908;52.344;16.858;2023-02-28T07:12:51;39.40;;;19.20;;
47155;SDS011;32908;52.344;16.858;2023-02-28T07:15:22;34.70;;;19.07;;
47155;SDS011;32908;52.344;16.858;2023-02-28T07:17:53;35.67;;;18.83;;
47155;SDS011;32908;52.344;16.858;2023-02-28T07:20:24;36.87;;;19.30;;
47155;SDS011;32908;52.344;16.858;2023-02-28T07:22:55;35.53;;;18.43;;
47155;SDS011;32908;52.344;16.858;2023-02-28T07:25:26;33.27;;;17.87;;
47155;SDS011;32908;52.344;16.858;2023-02-28T07:27:57;33.10;;;18.77;;
47155;SDS011;32908;52.344;16.858;2023-02-28T07:30:28;31.87;;;17.63;;
47155;SDS011;32908;52.344;16.858;2023-02-28T07:32:59;36.50;;;18.60;;
47155;SDS011;32908;52.344;16.858;2023-02-28T07:35:31;42.43;;;20.80;;
47155;SDS011;32908;52.344;16.858;2023-02-28T07:38:03;66.40;;;26.53;;
47155;SDS011;32908;52.344;16.858;2023-02-28T07:40:35;75.53;;;31.47;;
47155;SDS011;32908;52.344;16.858;2023-02-28T07:43:06;84.63;;;34.83;;
47155;SDS011;32908;52.344;16.858;2023-02-28T07:45:37;59.43;;;26.33;;
47155;SDS011;32908;52.344;16.858;2023-02-28T07:48:08;53.33;;;23.50;;
47155;SDS011;32908;52.344;16.858;2023-02-28T07:50:39;50.67;;;23.53;;
47155;SDS011;32908;52.344;16.858;2023-02-28T07:53:10;48.43;;;22.63;;
47155;SDS011;32908;52.344;16.858;2023-02-28T07:55:41;43.60;;;22.97;;
47155;SDS011;32908;52.344;16.858;2023-02-28T07:58:12;51.67;;;22.67;;
47155;SDS011;32908;52.344;16.858;2023-02-28T08:00:43;44.17;;;22.33;;
47155;SDS011;32908;52.344;16.858;2023-02-28T08:03:14;37.90;;;21.03;;
47155;SDS011;32908;52.344;16.858;2023-02-28T08:05:45;38.77;;;21.33;;
47155;SDS011;32908;52.344;16.858;2023-02-28T08:08:16;39.73;;;21.97;;
47155;SDS011;32908;52.344;16.858;2023-02-28T08:10:47;39.83;;;21.03;;
47155;SDS011;32908;52.344;16.858;2023-02-28T08:13:18;42.77;;;21.47;;
47155;SDS011;32908;52.344;16.858;2023-02-28T08:15:49;43.03;;;21.40;;
47155;SDS011;32908;52.344;16.858;2023-02-28T08:18:20;34.20;;;20.10;;
47155;SDS011;32908;52.344;16.858;2023-02-28T08:20:51;34.73;;;20.00;;
47155;SDS011;32908;52.344;16.858;2023-02-28T08:23:22;34.80;;;20.20;;
47155;SDS011;32908;52.344;16.858;2023-02-28T08:25:56;34.27;;;19.67;;
47155;SDS011;32908;52.344;16.858;2023-02-28T08:28:27;33.67;;;18.70;;
47155;SDS011;32908;52.344;16.858;2023-02-28T08:30:58;33.03;;;18.80;;
47155;SDS011;32908;52.344;16.858;2023-02-28T08:33:28;38.23;;;18.27;;
47155;SDS011;32908;52.344;16.858;2023-02-28T08:35:59;29.33;;;17.27;;
47155;SDS011;32908;52.344;16.858;2023-02-28T08:38:30;33.83;;;19.03;;
47155;SDS011;32908;52.344;16.858;2023-02-28T08:41:02;33.43;;;16.20;;
47155;SDS011;32908;52.344;16.858;2023-02-28T08:43:35;26.63;;;15.50;;
47155;SDS011;32908;52.344;16.858;2023-02-28T08:46:06;22.90;;;15.00;;
47155;SDS011;32908;52.344;16.858;2023-02-28T08:48:37;24.73;;;13.83;;
47155;SDS011;32908;52.344;16.858;2023-02-28T08:51:10;27.43;;;14.63;;
47155;SDS011;32908;52.344;16.858;2023-02-28T08:53:44;24.90;;;14.50;;
47155;SDS011;32908;52.344;16.858;2023-02-28T08:56:17;28.67;;;15.70;;
47155;SDS011;32908;52.344;16.858;2023-02-28T08:58:48;29.90;;;16.83;;
47155;SDS011;32908;52.344;16.858;2023-02-28T09:01:20;31.20;;;17.63;;
47155;SDS011;32908;52.344;16.858;2023-02-28T09:03:51;28.37;;;17.30;;
47155;SDS011;32908;52.344;16.858;2023-02-28T09:06:23;28.27;;;17.10;;
47155;SDS011;32908;52.344;16.858;2023-02-28T09:08:57;26.50;;;15.20;;
47155;SDS011;32908;52.344;16.858;2023-02-28T09:11:28;23.70;;;14.83;;
47155;SDS011;32908;52.344;16.858;2023-02-28T09:13:59;28.47;;;15.80;;
47155;SDS011;32908;52.344;16.858;2023-02-28T09:16:31;25.70;;;16.17;;
47155;SDS011;32908;52.344;16.858;2023-02-28T09:19:02;29.40;;;14.90;;
47155;SDS011;32908;52.344;16.858;2023-02-28T09:21:33;27.73;;;15.37;;
47155;SDS011;32908;52.344;16.858;2023-02-28T09:24:05;21.93;;;12.47;;
47155;SDS011;32908;52.344;16.858;2023-02-28T09:26:36;22.83;;;12.20;;
47155;SDS011;32908;52.344;16.858;2023-02-28T09:29:08;19.80;;;12.07;;
47155;SDS011;32908;52.344;16.858;2023-02-28T09:31:39;25.00;;;14.27;;
47155;SDS011;32908;52.344;16.858;2023-02-28T09:34:11;19.83;;;12.23;;
47155;SDS011;32908;52.344;16.858;2023-02-28T09:36:43;27.33;;;13.63;;
47155;SDS011;32908;52.344;16.858;2023-02-28T09:39:14;22.30;;;12.90;;
47155;SDS011;32908;52.344;16.858;2023-02-28T09:41:45;23.50;;;12.73;;
47155;SDS011;32908;52.344;16.858;2023-02-28T09:44:20;22.80;;;12.90;;
47155;SDS011;32908;52.344;16.858;2023-02-28T09:46:55;26.33;;;14.17;;
47155;SDS011;32908;52.344;16.858;2023-02-28T09:49:31;21.63;;;12.03;;
47155;SDS011;32908;52.344;16.858;2023-02-28T09:52:07;24.57;;;13.33;;
47155;SDS011;32908;52.344;16.858;2023-02-28T09:54:41;23.00;;;12.63;;
47155;SDS011;32908;52.344;16.858;2023-02-28T09:57:15;26.13;;;12.60;;
47155;SDS011;32908;52.344;16.858;2023-02-28T09:59:54;20.50;;;12.83;;
47155;SDS011;32908;52.344;16.858;2023-02-28T10:02:41;21.67;;;12.93;;
47155;SDS011;32908;52.344;16.858;2023-02-28T10:05:20;22.93;;;12.87;;
47155;SDS011;32908;52.344;16.858;2023-02-28T10:07:57;24.70;;;10.97;;
47155;SDS011;32908;52.344;16.858;2023-02-28T10:10:38;22.77;;;11.93;;
47155;SDS011;32908;52.344;16.858;2023-02-28T10:13:15;22.47;;;11.23;;
47155;SDS011;32908;52.344;16.858;2023-02-28T10:15:50;19.23;;;10.77;;
47155;SDS011;32908;52.344;16.858;2023-02-28T10:18:23;16.60;;;9.67;;
47155;SDS011;32908;52.344;16.858;2023-02-28T10:20:55;15.37;;;8.57;;
47155;SDS011;32908;52.344;16.858;2023-02-28T10:23:28;16.93;;;7.97;;
47155;SDS011;32908;52.344;16.858;2023-02-28T10:26:09;12.23;;;7.47;;
47155;SDS011;32908;52.344;16.858;2023-02-28T10:28:43;12.40;;;7.37;;
47155;SDS011;32908;52.344;16.858;2023-02-28T10:31:15;17.70;;;8.87;;
47155;SDS011;32908;52.344;16.858;2023-02-28T10:33:48;15.30;;;9.40;;
47155;SDS011;32908;52.344;16.858;2023-02-28T10:36:23;18.87;;;10.10;;
47155;SDS011;32908;52.344;16.858;2023-02-28T10:38:54;16.20;;;9.93;;
47155;SDS011;32908;52.344;16.858;2023-02-28T10:41:28;14.40;;;9.97;;
47155;SDS011;32908;52.344;16.858;2023-02-28T10:44:18;19.47;;;10.73;;
47155;SDS011;32908;52.344;16.858;2023-02-28T10:46:51;20.20;;;11.73;;
47155;SDS011;32908;52.344;16.858;2023-02-28T10:49:22;17.07;;;11.40;;
47155;SDS011;32908;52.344;16.858;2023-02-28T10:51:56;17.63;;;10.93;;
47155;SDS011;32908;52.344;16.858;2023-02-28T10:54:29;19.87;;;10.33;;
47155;SDS011;32908;52.344;16.858;2023-02-28T10:57:14;17.80;;;10.07;;
47155;SDS011;32908;52.344;16.858;2023-02-28T10:59:47;18.23;;;10.57;;
47155;SDS011;32908;52.344;16.858;2023-02-28T11:02:30;16.30;;;10.43;;
47155;SDS011;32908;52.344;16.858;2023-02-28T11:05:03;20.47;;;11.57;;
47155;SDS011;32908;52.344;16.858;2023-02-28T11:07:54;23.80;;;12.47;;
47155;SDS011;32908;52.344;16.858;2023-02-28T11:10:28;23.07;;;11.70;;
47155;SDS011;32908;52.344;16.858;2023-02-28T11:13:02;20.57;;;12.27;;
47155;SDS011;32908;52.344;16.858;2023-02-28T11:15:33;23.90;;;13.13;;
47155;SDS011;32908;52.344;16.858;2023-02-28T11:18:08;21.80;;;12.70;;
47155;SDS011;32908;52.344;16.858;2023-02-28T11:20:51;23.00;;;12.63;;
47155;SDS011;32908;52.344;16.858;2023-02-28T11:23:23;22.87;;;13.13;;
47155;SDS011;32908;52.344;16.858;2023-02-28T11:25:56;19.77;;;12.47;;
47155;SDS011;32908;52.344;16.858;2023-02-28T11:28:30;19.67;;;11.47;;
47155;SDS011;32908;52.344;16.858;2023-02-28T11:31:09;17.60;;;10.83;;
47155;SDS011;32908;52.344;16.858;2023-02-28T11:33:48;21.23;;;11.40;;
47155;SDS011;32908;52.344;16.858;2023-02-28T11:36:21;20.07;;;11.70;;
47155;SDS011;32908;52.344;16.858;2023-02-28T11:38:55;19.13;;;11.60;;
47155;SDS011;32908;52.344;16.858;2023-02-28T11:41:32;21.80;;;12.07;;
47155;SDS011;32908;52.344;16.858;2023-02-28T11:44:26;19.50;;;12.60;;
47155;SDS011;32908;52.344;16.858;2023-02-28T11:47:02;18.57;;;11.37;;
47155;SDS011;32908;52.344;16.858;2023-02-28T11:49:37;21.13;;;13.40;;
47155;SDS011;32908;52.344;16.858;2023-02-28T11:52:17;28.75;;;14.75;;
47155;SDS011;32908;52.344;16.858;2023-02-28T11:54:58;19.17;;;11.67;;
47155;SDS011;32908;52.344;16.858;2023-02-28T11:57:38;23.30;;;13.53;;
47155;SDS011;32908;52.344;16.858;2023-02-28T12:00:25;17.37;;;11.50;;
47155;SDS011;32908;52.344;16.858;2023-02-28T12:03:07;18.93;;;11.50;;
47155;SDS011;32908;52.344;16.858;2023-02-28T12:05:45;18.67;;;11.37;;
47155;SDS011;32908;52.344;16.858;2023-02-28T12:08:22;19.47;;;10.53;;
47155;SDS011;32908;52.344;16.858;2023-02-28T12:11:03;19.83;;;11.43;;
47155;SDS011;32908;52.344;16.858;2023-02-28T12:13:41;16.67;;;10.90;;
47155;SDS011;32908;52.344;16.858;2023-02-28T15:14:42;21.97;;;10.43;;
47155;SDS011;32908;52.344;16.858;2023-02-28T15:17:17;14.77;;;8.77;;
47155;SDS011;32908;52.344;16.858;2023-02-28T15:19:52;18.00;;;9.27;;
47155;SDS011;32908;52.344;16.858;2023-02-28T15:22:26;16.97;;;9.33;;
47155;SDS011;32908;52.344;16.858;2023-02-28T15:25:00;18.80;;;10.48;;
47155;SDS011;32908;52.344;16.858;2023-02-28T15:27:37;21.53;;;9.93;;
47155;SDS011;32908;52.344;16.858;2023-02-28T15:30:15;18.50;;;9.83;;
47155;SDS011;32908;52.344;16.858;2023-02-28T15:54:18;36.63;;;16.80;;
47155;SDS011;32908;52.344;16.858;2023-02-28T15:56:51;39.55;;;17.25;;
47155;SDS011;32908;52.344;16.858;2023-02-28T15:59:21;38.13;;;19.10;;
47155;SDS011;32908;52.344;16.858;2023-02-28T16:02:03;31.67;;;15.43;;
47155;SDS011;32908;52.344;16.858;2023-02-28T16:07:23;25.50;;;12.80;;
47155;SDS011;32908;52.344;16.858;2023-02-28T16:09:52;31.77;;;14.63;;
47155;SDS011;32908;52.344;16.858;2023-02-28T16:12:20;29.00;;;14.67;;
47155;SDS011;32908;52.344;16.858;2023-02-28T16:14:54;35.00;;;16.17;;
47155;SDS011;32908;52.344;16.858;2023-02-28T16:17:24;41.20;;;21.30;;
47155;SDS011;32908;52.344;16.858;2023-02-28T16:19:54;46.13;;;26.70;;
47155;SDS011;32908;52.344;16.858;2023-02-28T16:22:23;60.33;;;38.30;;
47155;SDS011;32908;52.344;16.858;2023-02-28T16:24:51;66.70;;;38.93;;
47155;SDS011;32908;52.344;16.858;2023-02-28T16:27:20;61.67;;;38.13;;
47155;SDS011;32908;52.344;16.858;2023-02-28T16:29:51;58.73;;;36.03;;
47155;SDS011;32908;52.344;16.858;2023-02-28T16:32:20;53.20;;;34.00;;
47155;SDS011;32908;52.344;16.858;2023-02-28T16:34:48;56.50;;;33.43;;
47155;SDS011;32908;52.344;16.858;2023-02-28T16:37:17;59.03;;;33.70;;
47155;SDS011;32908;52.344;16.858;2023-02-28T16:39:45;64.60;;;35.60;;
47155;SDS011;32908;52.344;16.858;2023-02-28T16:42:15;68.87;;;35.63;;
47155;SDS011;32908;52.344;16.858;2023-02-28T16:44:45;72.90;;;34.87;;
47155;SDS011;32908;52.344;16.858;2023-02-28T16:47:13;72.07;;;34.87;;
47155;SDS011;32908;52.344;16.858;2023-02-28T16:49:42;70.57;;;33.93;;
47155;SDS011;32908;52.344;16.858;2023-02-28T16:52:10;71.47;;;33.47;;
47155;SDS011;32908;52.344;16.858;2023-02-28T16:54:38;72.73;;;33.47;;
47155;SDS011;32908;52.344;16.858;2023-02-28T16:57:09;71.97;;;33.93;;
47155;SDS011;32908;52.344;16.858;2023-02-28T17:02:11;80.23;;;33.73;;
47155;SDS011;32908;52.344;16.858;2023-02-28T17:04:40;89.73;;;36.23;;
47155;SDS011;32908;52.344;16.858;2023-02-28T17:07:09;92.13;;;38.50;;
47155;SDS011;32908;52.344;16.858;2023-02-28T17:09:39;107.30;;;43.40;;
47155;SDS011;32908;52.344;16.858;2023-02-28T17:12:07;106.57;;;42.97;;
47155;SDS011;32908;52.344;16.858;2023-02-28T17:14:37;108.70;;;43.70;;
47155;SDS011;32908;52.344;16.858;2023-02-28T17:17:06;117.73;;;44.93;;
47155;SDS011;32908;52.344;16.858;2023-02-28T17:19:36;111.53;;;44.40;;
47155;SDS011;32908;52.344;16.858;2023-02-28T17:22:08;121.73;;;46.07;;
47155;SDS011;32908;52.344;16.858;2023-02-28T17:24:37;119.60;;;46.90;;
47155;SDS011;32908;52.344;16.858;2023-02-28T17:27:05;105.97;;;43.20;;
47155;SDS011;32908;52.344;16.858;2023-02-28T17:29:36;103.50;;;42.27;;
47155;SDS011;32908;52.344;16.858;2023-02-28T17:32:04;114.93;;;43.17;;
47155;SDS011;32908;52.344;16.858;2023-02-28T17:34:32;101.57;;;41.87;;
47155;SDS011;32908;52.344;16.858;2023-02-28T17:37:01;114.37;;;43.70;;
47155;SDS011;32908;52.344;16.858;2023-02-28T17:39:29;107.07;;;43.57;;
47155;SDS011;32908;52.344;16.858;2023-02-28T17:41:57;106.07;;;43.50;;
47155;SDS011;32908;52.344;16.858;2023-02-28T17:44:26;101.63;;;42.07;;
47155;SDS011;32908;52.344;16.858;2023-02-28T17:46:54;99.90;;;41.80;;
47155;SDS011;32908;52.344;16.858;2023-02-28T17:49:22;110.00;;;46.10;;
47155;SDS011;32908;52.344;16.858;2023-02-28T17:51:51;99.23;;;42.07;;
47155;SDS011;32908;52.344;16.858;2023-02-28T17:54:19;99.57;;;41.87;;
47155;SDS011;32908;52.344;16.858;2023-02-28T17:56:47;92.97;;;41.47;;
47155;SDS011;32908;52.344;16.858;2023-02-28T17:59:16;93.60;;;40.63;;
47155;SDS011;32908;52.344;16.858;2023-02-28T18:01:44;92.50;;;40.63;;
47155;SDS011;32908;52.344;16.858;2023-02-28T18:04:12;95.37;;;40.87;;
47155;SDS011;32908;52.344;16.858;2023-02-28T18:06:41;95.57;;;41.50;;
47155;SDS011;32908;52.344;16.858;2023-02-28T18:09:17;91.23;;;40.33;;
47155;SDS011;32908;52.344;16.858;2023-02-28T18:11:47;80.57;;;39.97;;